createdAt,value
2023-04-01T00:01:22.602Z,1.50
2023-04-01T00:03:46.445Z,1.70
2023-04-01T00:06:11.098Z,1.40
2023-04-01T00:08:35.816Z,1.40
2023-04-01T00:10:59.553Z,1.60
2023-04-01T00:13:24.014Z,1.73
2023-04-01T00:15:47.968Z,1.40
2023-04-01T00:18:11.476Z,1.17
2023-04-01T00:20:35.016Z,1.30
2023-04-01T00:22:58.687Z,1.13
2023-04-01T00:25:23.472Z,1.20
2023-04-01T00:27:46.799Z,1.13
2023-04-01T00:30:11.654Z,1.35
2023-04-01T00:32:35.023Z,1.33
2023-04-01T00:35:00.000Z,1.30
2023-04-01T00:37:23.797Z,1.42
2023-04-01T00:39:47.205Z,1.23
2023-04-01T00:42:13.293Z,1.10
2023-04-01T00:44:36.948Z,1.30
2023-04-01T00:47:00.348Z,1.27
2023-04-01T00:49:29.817Z,1.38
2023-04-01T00:51:56.069Z,1.20
2023-04-01T00:54:22.020Z,1.55
2023-04-01T00:56:51.325Z,1.30
2023-04-01T00:59:21.157Z,1.83
2023-04-01T01:01:44.570Z,1.50
2023-04-01T01:04:08.456Z,1.30
2023-04-01T01:06:47.671Z,1.25
2023-04-01T01:09:27.819Z,1.40
2023-04-01T01:11:56.822Z,1.15
2023-04-01T01:14:41.265Z,0.98
2023-04-01T01:17:14.438Z,1.27
2023-04-01T01:20:26.630Z,1.17
2023-04-01T01:23:32.308Z,1.25
2023-04-01T01:26:13.828Z,1.10
2023-04-01T01:28:52.129Z,0.90
2023-04-01T01:31:23.366Z,1.02
2023-04-01T01:33:59.421Z,1.15
2023-04-01T01:36:25.862Z,1.40
2023-04-01T01:38:51.079Z,1.15
2023-04-01T01:41:17.937Z,1.23
2023-04-01T01:43:45.486Z,1.10
2023-04-01T01:46:17.013Z,0.80
2023-04-01T01:48:42.479Z,0.88
2023-04-01T01:51:07.457Z,1.05
2023-04-01T01:53:32.616Z,0.90
2023-04-01T01:55:56.375Z,1.08
2023-04-01T01:58:25.149Z,0.73
2023-04-01T02:00:54.533Z,1.20
2023-04-01T02:03:19.481Z,0.95
2023-04-01T02:05:43.364Z,1.20
2023-04-01T02:08:11.510Z,2.03
2023-04-01T02:10:41.310Z,1.25
2023-04-01T02:13:15.109Z,1.10
2023-04-01T02:15:43.936Z,1.00
2023-04-01T02:18:07.911Z,0.93
2023-04-01T02:20:32.547Z,1.30
2023-04-01T02:22:59.282Z,1.20
2023-04-01T02:25:27.569Z,1.17
2023-04-01T02:27:52.283Z,1.80
2023-04-01T02:30:17.870Z,1.75
2023-04-01T02:32:42.942Z,1.17
2023-04-01T02:35:09.149Z,1.40
2023-04-01T02:37:34.346Z,1.40
2023-04-01T02:40:02.493Z,1.10
2023-04-01T02:42:26.175Z,1.00
2023-04-01T02:44:51.122Z,1.10
2023-04-01T02:47:14.518Z,1.15
2023-04-01T02:49:37.754Z,1.30
2023-04-01T02:52:01.029Z,1.60
2023-04-01T02:54:24.329Z,1.40
2023-04-01T02:56:47.706Z,1.45
2023-04-01T02:59:11.532Z,1.58
2023-04-01T03:01:36.385Z,1.30
2023-04-01T03:03:59.692Z,1.40
2023-04-01T03:06:23.067Z,1.30
2023-04-01T03:08:46.821Z,1.70
2023-04-01T03:11:11.290Z,1.67
2023-04-01T03:13:35.320Z,1.50
2023-04-01T03:15:58.706Z,1.90
2023-04-01T03:18:23.576Z,1.20
2023-04-01T03:20:46.934Z,1.60
2023-04-01T03:23:10.647Z,1.55
2023-04-01T03:25:34.679Z,1.42
2023-04-01T03:28:00.602Z,1.60
2023-04-01T03:30:23.971Z,1.52
2023-04-01T03:32:47.755Z,1.60
2023-04-01T03:35:12.689Z,1.58
2023-04-01T03:37:36.021Z,1.58
2023-04-01T03:39:59.409Z,1.50
2023-04-01T03:42:22.689Z,1.50
2023-04-01T03:44:46.213Z,1.60
2023-04-01T03:47:11.120Z,1.63
2023-04-01T03:49:35.706Z,1.40
2023-04-01T03:52:00.664Z,1.25
2023-04-01T03:54:24.005Z,1.33
2023-04-01T03:56:47.301Z,1.48
2023-04-01T03:59:11.343Z,1.55
2023-04-01T04:01:35.386Z,1.50
2023-04-01T04:04:00.228Z,1.50
2023-04-01T04:06:24.400Z,1.30
2023-04-01T04:08:49.928Z,1.00
2023-04-01T04:11:13.678Z,1.20
2023-04-01T04:13:39.030Z,1.20
2023-04-01T04:16:02.604Z,1.55
2023-04-01T04:18:26.490Z,1.70
2023-04-01T04:20:52.027Z,1.60
2023-04-01T04:23:16.125Z,1.60
2023-04-01T04:25:40.845Z,1.40
2023-04-01T04:28:04.120Z,2.00
2023-04-01T04:30:27.484Z,2.08
2023-04-01T04:32:50.920Z,1.70
2023-04-01T04:35:14.343Z,1.92
2023-04-01T04:37:37.740Z,2.20
2023-04-01T04:40:01.007Z,2.25
2023-04-01T04:42:26.525Z,2.50
2023-04-01T04:44:56.659Z,2.78
2023-04-01T04:47:20.455Z,2.30
2023-04-01T04:49:43.820Z,2.20
2023-04-01T04:52:07.251Z,2.53
2023-04-01T04:54:31.673Z,2.97
2023-04-01T04:56:57.589Z,2.97
2023-04-01T04:59:24.235Z,2.95
2023-04-01T05:01:59.626Z,3.15
2023-04-01T05:04:22.959Z,3.30
2023-04-01T05:06:46.666Z,2.78
2023-04-01T05:09:10.936Z,3.15
2023-04-01T05:11:34.226Z,2.55
2023-04-01T05:13:57.554Z,3.13
2023-04-01T05:16:23.231Z,2.83
2023-04-01T05:18:46.714Z,2.60
2023-04-01T05:21:12.263Z,3.22
2023-04-01T05:23:35.637Z,3.40
2023-04-01T05:25:59.047Z,3.60
2023-04-01T05:28:22.740Z,4.00
2023-04-01T05:30:46.808Z,3.67
2023-04-01T05:33:23.209Z,3.83
2023-04-01T05:35:47.065Z,3.58
2023-04-01T05:38:10.717Z,3.45
2023-04-01T05:40:34.973Z,3.63
2023-04-01T05:43:01.882Z,3.78
2023-04-01T05:45:25.592Z,4.60
2023-04-01T05:48:16.284Z,4.60
2023-04-01T05:50:42.933Z,4.68
2023-04-01T05:53:07.801Z,4.88
2023-04-01T05:55:32.035Z,4.45
2023-04-01T05:57:55.552Z,5.18
2023-04-01T06:00:20.803Z,4.60
2023-04-01T06:02:44.422Z,4.70
2023-04-01T06:05:18.360Z,5.03
2023-04-01T06:07:43.122Z,4.75
2023-04-01T06:10:15.445Z,4.65
2023-04-01T06:12:50.090Z,5.18
2023-04-01T06:15:25.417Z,5.78
2023-04-01T06:18:19.639Z,6.45
2023-04-01T06:20:49.965Z,6.03
2023-04-01T06:23:43.468Z,6.30
2023-04-01T06:26:27.024Z,6.10
2023-04-01T06:29:11.997Z,5.90
2023-04-01T06:31:55.333Z,6.75
2023-04-01T06:34:56.025Z,6.65
2023-04-01T06:37:42.497Z,6.68
2023-04-01T06:40:27.455Z,6.60
2023-04-01T06:43:13.213Z,6.82
2023-04-01T06:46:01.603Z,6.75
2023-04-01T06:49:05.344Z,6.97
2023-04-01T06:51:57.362Z,6.28
2023-04-01T06:54:43.019Z,6.00
2023-04-01T06:57:36.635Z,5.72
2023-04-01T07:00:03.174Z,5.13
2023-04-01T07:02:35.893Z,5.18
2023-04-01T07:05:01.555Z,5.10
2023-04-01T07:07:34.951Z,5.63
2023-04-01T07:10:05.547Z,4.95
2023-04-01T07:12:43.185Z,4.10
2023-04-01T07:15:31.340Z,4.20
2023-04-01T07:17:59.396Z,4.80
2023-04-01T07:20:28.264Z,4.32
2023-04-01T07:22:56.417Z,4.07
2023-04-01T07:25:54.130Z,3.88
2023-04-01T07:28:38.840Z,4.18
2023-04-01T07:31:45.354Z,4.22
2023-04-01T07:34:15.040Z,3.72
2023-04-01T07:36:45.061Z,3.67
2023-04-01T07:39:23.517Z,4.18
2023-04-01T07:42:17.830Z,4.57
2023-04-01T07:44:51.781Z,4.32
2023-04-01T07:47:33.942Z,5.82
2023-04-01T07:50:13.658Z,5.43
2023-04-01T07:52:46.016Z,5.80
2023-04-01T07:55:23.396Z,5.82
2023-04-01T07:57:52.820Z,5.70
2023-04-01T08:00:25.395Z,6.18
2023-04-01T08:03:19.376Z,5.70
2023-04-01T08:05:55.910Z,5.63
2023-04-01T08:08:29.193Z,5.43
2023-04-01T08:11:36.358Z,5.60
2023-04-01T08:14:28.194Z,5.70
2023-04-01T08:17:41.661Z,5.40
2023-04-01T08:20:28.359Z,5.80
2023-04-01T08:22:54.612Z,5.97
2023-04-01T08:25:29.890Z,6.40
2023-04-01T08:27:59.510Z,6.20
2023-04-01T08:30:26.752Z,5.85
2023-04-01T08:32:57.032Z,6.35
2023-04-01T08:35:32.629Z,6.95
2023-04-01T08:38:03.118Z,7.05
2023-04-01T08:40:58.022Z,6.97
2023-04-01T08:43:50.742Z,7.95
2023-04-01T08:46:53.647Z,7.03
2023-04-01T08:49:49.083Z,8.13
2023-04-01T08:52:37.037Z,8.48
2023-04-01T08:55:29.701Z,8.77
2023-04-01T08:58:29.801Z,9.45
2023-04-01T09:01:45.685Z,8.55
2023-04-01T09:04:54.766Z,9.70
2023-04-01T09:07:40.470Z,8.65
2023-04-01T09:10:36.065Z,8.30
2023-04-01T09:13:34.152Z,8.82
2023-04-01T09:16:21.870Z,8.95
2023-04-01T09:19:26.158Z,8.25
2023-04-01T09:22:26.813Z,9.63
2023-04-01T09:25:25.589Z,8.70
2023-04-01T09:27:59.178Z,10.18
2023-04-01T09:30:56.582Z,9.02
2023-04-01T09:34:23.267Z,9.70
2023-04-01T09:37:18.398Z,10.07
2023-04-01T09:39:52.550Z,9.93
2023-04-01T09:42:44.651Z,11.00
2023-04-01T09:46:05.625Z,10.02
2023-04-01T09:48:49.403Z,11.75
2023-04-01T09:51:28.506Z,12.30
2023-04-01T09:54:10.264Z,12.98
2023-04-01T09:57:44.471Z,13.93
2023-04-01T10:00:57.719Z,14.25
2023-04-01T10:04:18.643Z,14.68
2023-04-01T10:07:17.545Z,13.90
2023-04-01T10:10:27.958Z,13.63
2023-04-01T10:13:44.551Z,14.00
2023-04-01T10:16:43.935Z,13.88
2023-04-01T10:19:59.537Z,12.73
2023-04-01T10:23:04.583Z,14.48
2023-04-01T10:26:36.266Z,13.38
2023-04-01T10:30:26.262Z,13.38
2023-04-01T10:33:39.141Z,12.60
2023-04-01T10:36:58.995Z,12.95
2023-04-01T10:40:19.580Z,13.57
2023-04-01T10:43:49.561Z,13.13
2023-04-01T10:46:55.474Z,12.73
2023-04-01T10:49:53.138Z,13.15
2023-04-01T10:53:06.182Z,14.00
2023-04-01T10:56:46.345Z,13.07
2023-04-01T11:00:10.736Z,13.23
2023-04-01T11:03:50.852Z,13.00
2023-04-01T11:08:02.779Z,13.10
2023-04-01T11:11:12.731Z,13.20
2023-04-01T11:14:33.978Z,11.90
2023-04-01T11:17:33.426Z,11.73
2023-04-01T11:20:33.823Z,12.15
2023-04-01T11:23:18.846Z,11.27
2023-04-01T11:26:02.394Z,12.68
2023-04-01T11:29:26.906Z,12.55
2023-04-01T11:32:02.087Z,11.80
2023-04-01T11:34:56.618Z,10.45
2023-04-01T11:37:38.316Z,10.75
2023-04-01T11:40:30.283Z,9.18
2023-04-01T11:43:32.313Z,9.93
2023-04-01T11:46:23.237Z,9.10
2023-04-01T11:49:05.093Z,9.45
2023-04-01T11:52:01.837Z,8.43
2023-04-01T11:54:42.547Z,9.15
2023-04-01T11:57:30.508Z,9.02
2023-04-01T12:00:20.537Z,8.90
2023-04-01T12:03:05.172Z,9.02
2023-04-01T12:05:41.240Z,10.27
2023-04-01T12:08:17.912Z,9.52
2023-04-01T12:10:47.983Z,10.30
2023-04-01T12:13:26.724Z,11.48
2023-04-01T12:16:21.026Z,11.30
2023-04-01T12:18:51.186Z,11.18
2023-04-01T12:21:27.092Z,12.15
2023-04-01T12:24:32.068Z,12.13
2023-04-01T12:27:19.590Z,12.00
2023-04-01T12:30:22.753Z,11.43
2023-04-01T12:32:59.349Z,11.15
2023-04-01T12:35:42.028Z,11.80
2023-04-01T12:38:23.274Z,11.50
2023-04-01T12:41:03.503Z,11.18
2023-04-01T12:44:22.545Z,11.55
2023-04-01T12:47:08.390Z,11.02
2023-04-01T12:49:58.073Z,11.52
2023-04-01T12:52:39.524Z,10.15
2023-04-01T12:55:35.418Z,10.15
2023-04-01T12:58:19.623Z,9.93
2023-04-01T13:01:01.434Z,10.73
2023-04-01T13:03:46.827Z,9.50
2023-04-01T13:06:28.283Z,8.82
2023-04-01T13:08:59.103Z,10.00
2023-04-01T13:11:33.240Z,9.23
2023-04-01T13:14:43.088Z,8.82
2023-04-01T13:17:17.584Z,9.07
2023-04-01T13:20:01.990Z,8.52
2023-04-01T13:23:00.961Z,8.55
2023-04-01T13:25:33.183Z,8.68
2023-04-01T13:28:03.402Z,8.20
2023-04-01T13:30:35.326Z,8.75
2023-04-01T13:33:07.206Z,8.48
2023-04-01T13:35:42.872Z,8.18
2023-04-01T13:38:40.584Z,8.77
2023-04-01T13:41:14.726Z,7.60
2023-04-01T13:43:43.561Z,7.40
2023-04-01T13:46:41.583Z,7.03
2023-04-01T13:49:34.669Z,7.20
2023-04-01T13:52:29.073Z,7.82
2023-04-01T13:55:24.783Z,7.32
2023-04-01T13:58:05.050Z,7.72
2023-04-01T14:00:43.943Z,6.82
2023-04-01T14:03:30.104Z,6.53
2023-04-01T14:06:08.090Z,6.68
2023-04-01T14:08:51.053Z,6.82
2023-04-01T14:11:20.451Z,7.30
2023-04-01T14:13:59.057Z,6.63
2023-04-01T14:17:08.863Z,6.43
2023-04-01T14:20:04.336Z,6.97
2023-04-01T14:22:39.689Z,6.15
2023-04-01T14:25:37.365Z,6.15
2023-04-01T14:28:13.890Z,6.35
2023-04-01T14:31:02.257Z,6.10
2023-04-01T14:33:44.216Z,6.50
2023-04-01T14:36:42.094Z,6.07
2023-04-01T14:39:39.742Z,6.13
2023-04-01T14:42:24.599Z,5.40
2023-04-01T14:45:04.469Z,5.60
2023-04-01T14:47:49.631Z,5.72
2023-04-01T14:50:18.446Z,5.70
2023-04-01T14:52:48.860Z,6.53
2023-04-01T14:55:35.163Z,6.18
2023-04-01T14:58:15.061Z,5.63
2023-04-01T15:01:01.885Z,5.72
2023-04-01T15:03:32.082Z,5.90
2023-04-01T15:06:11.885Z,6.68
2023-04-01T15:08:39.066Z,6.70
2023-04-01T15:11:32.256Z,6.00
2023-04-01T15:14:39.516Z,6.95
2023-04-01T15:17:47.729Z,5.93
2023-04-01T15:20:52.825Z,5.88
2023-04-01T15:23:30.869Z,4.95
2023-04-01T15:26:35.287Z,6.35
2023-04-01T15:29:30.696Z,5.78
2023-04-01T15:32:01.925Z,5.70
2023-04-01T15:34:34.663Z,6.20
2023-04-01T15:37:05.066Z,5.07
2023-04-01T15:39:44.657Z,5.75
2023-04-01T15:42:28.760Z,5.55
2023-04-01T15:45:27.170Z,5.18
2023-04-01T15:48:02.699Z,5.85
2023-04-01T15:51:00.854Z,5.68
2023-04-01T15:53:51.761Z,5.30
2023-04-01T15:56:30.384Z,5.28
2023-04-01T15:59:08.540Z,5.40
2023-04-01T16:01:44.764Z,5.30
2023-04-01T16:04:42.114Z,4.78
2023-04-01T16:07:25.027Z,5.75
2023-04-01T16:10:15.114Z,5.60
2023-04-01T16:12:52.230Z,6.60
2023-04-01T16:15:27.345Z,6.40
2023-04-01T16:18:20.566Z,5.05
2023-04-01T16:20:52.213Z,5.22
2023-04-01T16:23:26.617Z,5.40
2023-04-01T16:26:03.924Z,5.68
2023-04-01T16:28:34.140Z,5.70
2023-04-01T16:31:08.101Z,5.68
2023-04-01T16:33:45.484Z,5.60
2023-04-01T16:36:21.573Z,5.25
2023-04-01T16:38:53.691Z,5.90
2023-04-01T16:41:22.918Z,6.25
2023-04-01T16:43:53.101Z,5.82
2023-04-01T16:46:36.473Z,6.10
2023-04-01T16:49:18.046Z,6.43
2023-04-01T16:51:49.683Z,6.65
2023-04-01T16:54:21.007Z,6.53
2023-04-01T16:56:51.485Z,6.78
2023-04-01T16:59:22.577Z,7.63
2023-04-01T17:01:55.481Z,6.95
2023-04-01T17:04:31.490Z,7.32
2023-04-01T17:07:03.685Z,7.30
2023-04-01T17:09:45.452Z,8.98
2023-04-01T17:12:16.928Z,8.38
2023-04-01T17:14:52.569Z,9.32
2023-04-01T17:17:47.015Z,8.43
2023-04-01T17:20:26.416Z,9.73
2023-04-01T17:22:56.988Z,10.73
2023-04-01T17:25:36.504Z,9.20
2023-04-01T17:28:10.191Z,9.05
2023-04-01T17:30:38.376Z,9.45
2023-04-01T17:33:21.335Z,9.23
2023-04-01T17:35:56.388Z,9.35
2023-04-01T17:38:32.080Z,8.43
2023-04-01T17:41:05.742Z,8.32
2023-04-01T17:43:40.012Z,8.10
2023-04-01T17:46:21.657Z,8.35
2023-04-01T17:48:57.969Z,9.25
2023-04-01T17:51:31.117Z,8.57
2023-04-01T17:54:03.301Z,8.57
2023-04-01T17:56:47.662Z,9.00
2023-04-01T17:59:23.324Z,9.48
2023-04-01T18:02:00.406Z,9.02
2023-04-01T18:04:57.759Z,10.23
2023-04-01T18:07:46.785Z,9.82
2023-04-01T18:10:24.667Z,9.13
2023-04-01T18:13:21.841Z,9.35
2023-04-01T18:15:53.251Z,9.57
2023-04-01T18:18:39.678Z,8.68
2023-04-01T18:21:12.765Z,9.88
2023-04-01T18:23:49.410Z,11.10
2023-04-01T18:26:25.541Z,9.95
2023-04-01T18:28:56.651Z,11.05
2023-04-01T18:31:25.195Z,11.07
2023-04-01T18:34:03.159Z,11.70
2023-04-01T18:36:42.412Z,11.77
2023-04-01T18:39:13.409Z,11.68
2023-04-01T18:41:44.735Z,10.88
2023-04-01T18:44:28.759Z,11.25
2023-04-01T18:47:01.034Z,10.93
2023-04-01T18:49:31.599Z,10.68
2023-04-01T18:52:00.911Z,10.10
2023-04-01T18:54:29.423Z,9.30
2023-04-01T18:56:52.800Z,9.65
2023-04-01T18:59:24.399Z,10.30
2023-04-01T19:01:59.669Z,10.20
2023-04-01T19:04:32.016Z,9.65
2023-04-01T19:07:00.049Z,9.73
2023-04-01T19:09:28.506Z,9.50
2023-04-01T19:12:38.737Z,9.32
2023-04-01T19:15:23.192Z,8.95
2023-04-01T19:18:02.117Z,8.27
2023-04-01T19:20:32.636Z,8.90
2023-04-01T19:23:36.756Z,8.77
2023-04-01T19:26:02.546Z,9.57
2023-04-01T19:28:41.029Z,9.27
2023-04-01T19:31:19.585Z,8.30
2023-04-01T19:33:54.705Z,8.20
2023-04-01T19:36:27.461Z,9.40
2023-04-01T19:39:02.710Z,9.60
2023-04-01T19:41:39.031Z,9.50
2023-04-01T19:44:14.274Z,8.07
2023-04-01T19:46:43.761Z,8.65
2023-04-01T19:49:23.802Z,10.57
2023-04-01T19:51:54.707Z,9.50
2023-04-01T19:54:30.909Z,8.68
2023-04-01T19:57:05.724Z,9.10
2023-04-01T19:59:37.054Z,8.63
2023-04-01T20:02:29.405Z,8.43
2023-04-01T20:04:57.231Z,7.45
2023-04-01T20:07:26.614Z,7.20
2023-04-01T20:10:01.849Z,7.57
2023-04-01T20:12:43.568Z,8.48
2023-04-01T20:15:26.422Z,8.40
2023-04-01T20:17:52.582Z,7.47
2023-04-01T20:20:23.607Z,8.35
2023-04-01T20:23:19.578Z,7.80
2023-04-01T20:25:52.115Z,8.57
2023-04-01T20:28:25.413Z,7.25
2023-04-01T20:31:27.470Z,8.32
2023-04-01T20:34:17.451Z,7.88
2023-04-01T20:36:58.586Z,8.43
2023-04-01T20:39:56.338Z,8.88
2023-04-01T20:42:34.927Z,7.80
2023-04-01T20:45:18.247Z,7.38
2023-04-01T20:48:02.301Z,9.25
2023-04-01T20:50:31.160Z,7.47
2023-04-01T20:53:06.767Z,7.47
2023-04-01T20:56:09.196Z,7.28
2023-04-01T20:58:48.766Z,6.07
2023-04-01T21:01:25.140Z,7.05
2023-04-01T21:03:59.722Z,6.80
2023-04-01T21:06:49.781Z,6.32
2023-04-01T21:09:36.251Z,8.20
2023-04-01T21:12:13.999Z,7.63
2023-04-01T21:14:59.904Z,7.97
2023-04-01T21:17:37.435Z,9.55
2023-04-01T21:20:35.514Z,9.07
2023-04-01T21:23:22.386Z,6.57
2023-04-01T21:26:13.276Z,5.20
2023-04-01T21:28:54.601Z,3.92
2023-04-01T21:31:39.204Z,3.63
2023-04-01T21:34:43.177Z,3.42
2023-04-01T21:37:39.121Z,3.15
2023-04-01T21:40:33.435Z,3.70
2023-04-01T21:43:09.923Z,5.40
2023-04-01T21:45:57.686Z,5.85
2023-04-01T21:49:07.990Z,7.57
2023-04-01T21:52:11.821Z,7.57
2023-04-01T21:55:23.302Z,6.60
2023-04-01T21:58:41.165Z,6.30
2023-04-01T22:01:27.718Z,6.53
2023-04-01T22:04:19.334Z,7.10
2023-04-01T22:06:48.051Z,6.18
2023-04-01T22:09:19.708Z,5.57
2023-04-01T22:11:57.804Z,5.07
2023-04-01T22:14:29.829Z,5.30
2023-04-01T22:16:59.452Z,5.05
2023-04-01T22:19:34.211Z,6.15
2023-04-01T22:22:06.988Z,5.70
2023-04-01T22:24:42.064Z,6.15
2023-04-01T22:27:15.032Z,5.88
2023-04-01T22:29:47.404Z,8.38
2023-04-01T22:32:18.630Z,10.18
2023-04-01T22:34:49.728Z,10.48
2023-04-01T22:37:21.798Z,8.18
2023-04-01T22:40:16.568Z,8.52
2023-04-01T22:42:46.141Z,8.77
2023-04-01T22:45:27.400Z,7.18
2023-04-01T22:48:02.882Z,8.02
2023-04-01T22:50:33.823Z,8.07
2023-04-01T22:53:06.883Z,7.05
2023-04-01T22:55:33.202Z,7.22
2023-04-01T22:58:03.321Z,5.20
2023-04-01T23:00:30.645Z,4.25
2023-04-01T23:03:12.792Z,4.28
2023-04-01T23:05:43.332Z,4.40
2023-04-01T23:08:42.747Z,6.30
2023-04-01T23:11:09.325Z,8.48
2023-04-01T23:13:38.864Z,8.98
2023-04-01T23:16:03.922Z,9.52
2023-04-01T23:18:37.224Z,7.78
2023-04-01T23:21:16.255Z,6.60
2023-04-01T23:23:55.661Z,6.07
2023-04-01T23:26:26.551Z,5.97
2023-04-01T23:28:53.507Z,5.60
2023-04-01T23:31:36.758Z,4.78
2023-04-01T23:34:03.146Z,5.07
2023-04-01T23:36:28.278Z,6.57
2023-04-01T23:38:52.402Z,7.60
2023-04-01T23:41:22.705Z,6.90
2023-04-01T23:43:47.514Z,7.20
2023-04-01T23:46:11.084Z,7.15
2023-04-01T23:48:39.433Z,7.45
2023-04-01T23:51:03.205Z,5.95
2023-04-01T23:53:31.830Z,6.35
2023-04-01T23:55:56.618Z,5.32
2023-04-01T23:58:26.893Z,3.75
